sensor_id;sensor_type;location;lat;lon;timestamp;pressure;altitude;pressure_sealevel;temperature;humidity
20696;BME280;10507;52.754;13.040;2023-02-18T00:01:29;99711.97;;;6.30;91.98
20696;BME280;10507;52.754;13.040;2023-02-18T00:03:58;99714.28;;;6.18;93.05
20696;BME280;10507;52.754;13.040;2023-02-18T00:06:28;99713.00;;;6.08;93.05
20696;BME280;10507;52.754;13.040;2023-02-18T00:08:57;99754.81;;;6.01;93.66
20696;BME280;10507;52.754;13.040;2023-02-18T00:11:29;99787.63;;;5.99;93.94
20696;BME280;10507;52.754;13.040;2023-02-18T00:13:59;99810.91;;;5.91;94.58
20696;BME280;10507;52.754;13.040;2023-02-18T00:16:29;99845.50;;;5.88;95.22
20696;BME280;10507;52.754;13.040;2023-02-18T00:18:59;99879.03;;;5.87;95.38
20696;BME280;10507;52.754;13.040;2023-02-18T00:21:28;99895.22;;;5.81;96.09
20696;BME280;10507;52.754;13.040;2023-02-18T00:23:56;99921.63;;;5.82;95.59
20696;BME280;10507;52.754;13.040;2023-02-18T00:26:24;99928.84;;;5.79;96.29
20696;BME280;10507;52.754;13.040;2023-02-18T00:28:53;99956.19;;;5.79;96.37
20696;BME280;10507;52.754;13.040;2023-02-18T00:31:23;99970.34;;;5.78;96.41
20696;BME280;10507;52.754;13.040;2023-02-18T00:33:53;99985.47;;;5.76;96.24
20696;BME280;10507;52.754;13.040;2023-02-18T00:36:22;99989.97;;;5.74;96.73
20696;BME280;10507;52.754;13.040;2023-02-18T00:38:51;99997.13;;;5.72;96.66
20696;BME280;10507;52.754;13.040;2023-02-18T00:41:21;100011.41;;;5.68;97.24
20696;BME280;10507;52.754;13.040;2023-02-18T00:43:49;100043.19;;;5.68;97.41
20696;BME280;10507;52.754;13.040;2023-02-18T00:46:16;100055.47;;;5.69;97.51
20696;BME280;10507;52.754;13.040;2023-02-18T00:48:45;100085.31;;;5.74;97.39
20696;BME280;10507;52.754;13.040;2023-02-18T00:51:14;100074.72;;;5.74;97.25
20696;BME280;10507;52.754;13.040;2023-02-18T00:53:42;100078.19;;;5.76;97.26
20696;BME280;10507;52.754;13.040;2023-02-18T00:56:10;100088.78;;;5.76;97.39
20696;BME280;10507;52.754;13.040;2023-02-18T00:58:38;100097.50;;;5.78;97.34
20696;BME280;10507;52.754;13.040;2023-02-18T01:01:07;100100.00;;;5.83;97.42
20696;BME280;10507;52.754;13.040;2023-02-18T01:03:36;100094.84;;;5.78;97.31
20696;BME280;10507;52.754;13.040;2023-02-18T01:06:04;100094.00;;;5.78;97.67
20696;BME280;10507;52.754;13.040;2023-02-18T01:08:35;100102.94;;;5.75;97.58
20696;BME280;10507;52.754;13.040;2023-02-18T01:11:04;100113.38;;;5.78;97.28
20696;BME280;10507;52.754;13.040;2023-02-18T01:13:32;100107.06;;;5.82;97.18
20696;BME280;10507;52.754;13.040;2023-02-18T01:16:00;100082.53;;;5.77;97.00
20696;BME280;10507;52.754;13.040;2023-02-18T01:18:29;100084.34;;;5.77;97.17
20696;BME280;10507;52.754;13.040;2023-02-18T01:20:57;100066.84;;;5.73;97.52
20696;BME280;10507;52.754;13.040;2023-02-18T01:23:26;100079.41;;;5.68;97.56
20696;BME280;10507;52.754;13.040;2023-02-18T01:25:56;100085.69;;;5.65;97.58
20696;BME280;10507;52.754;13.040;2023-02-18T01:28:24;100080.66;;;5.57;98.08
20696;BME280;10507;52.754;13.040;2023-02-18T01:30:52;100102.66;;;5.59;97.78
20696;BME280;10507;52.754;13.040;2023-02-18T01:33:21;100112.50;;;5.56;98.02
20696;BME280;10507;52.754;13.040;2023-02-18T01:35:48;100108.13;;;5.55;97.90
20696;BME280;10507;52.754;13.040;2023-02-18T01:38:18;100107.38;;;5.51;98.22
20696;BME280;10507;52.754;13.040;2023-02-18T01:40:48;100102.38;;;5.44;98.27
20696;BME280;10507;52.754;13.040;2023-02-18T01:43:18;100121.81;;;5.42;98.56
20696;BME280;10507;52.754;13.040;2023-02-18T01:48:37;100130.69;;;5.41;98.72
20696;BME280;10507;52.754;13.040;2023-02-18T01:51:09;100135.31;;;5.36;99.34
20696;BME280;10507;52.754;13.040;2023-02-18T01:53:43;100157.16;;;5.41;99.07
20696;BME280;10507;52.754;13.040;2023-02-18T01:56:19;100163.28;;;5.44;99.41
20696;BME280;10507;52.754;13.040;2023-02-18T01:58:53;100153.66;;;5.41;99.17
20696;BME280;10507;52.754;13.040;2023-02-18T02:01:22;100154.56;;;5.40;99.36
20696;BME280;10507;52.754;13.040;2023-02-18T02:03:50;100158.16;;;5.39;99.12
20696;BME280;10507;52.754;13.040;2023-02-18T02:06:20;100162.59;;;5.38;99.26
20696;BME280;10507;52.754;13.040;2023-02-18T02:08:50;100180.13;;;5.41;99.67
20696;BME280;10507;52.754;13.040;2023-02-18T02:11:27;100183.63;;;5.41;99.65
20696;BME280;10507;52.754;13.040;2023-02-18T02:14:10;100179.31;;;5.39;99.70
20696;BME280;10507;52.754;13.040;2023-02-18T02:16:44;100171.25;;;5.42;99.59
20696;BME280;10507;52.754;13.040;2023-02-18T02:19:34;100183.63;;;5.41;99.34
20696;BME280;10507;52.754;13.040;2023-02-18T02:22:39;100162.63;;;5.37;99.50
20696;BME280;10507;52.754;13.040;2023-02-18T02:25:19;100172.34;;;5.36;99.34
20696;BME280;10507;52.754;13.040;2023-02-18T02:28:24;100170.63;;;5.35;99.56
20696;BME280;10507;52.754;13.040;2023-02-18T02:31:27;100191.88;;;5.34;99.96
20696;BME280;10507;52.754;13.040;2023-02-18T02:34:21;100187.53;;;5.31;99.61
20696;BME280;10507;52.754;13.040;2023-02-18T02:36:58;100195.47;;;5.31;99.76
20696;BME280;10507;52.754;13.040;2023-02-18T02:39:35;100200.66;;;5.34;99.57
20696;BME280;10507;52.754;13.040;2023-02-18T02:42:10;100171.81;;;5.27;99.72
20696;BME280;10507;52.754;13.040;2023-02-18T02:44:47;100187.66;;;5.28;99.72
20696;BME280;10507;52.754;13.040;2023-02-18T02:47:20;100182.47;;;5.25;99.77
20696;BME280;10507;52.754;13.040;2023-02-18T02:49:57;100202.78;;;5.25;100.00
20696;BME280;10507;52.754;13.040;2023-02-18T02:52:29;100182.63;;;5.20;99.74
20696;BME280;10507;52.754;13.040;2023-02-18T02:54:58;100190.50;;;5.22;99.40
20696;BME280;10507;52.754;13.040;2023-02-18T02:57:43;100179.09;;;5.20;99.97
20696;BME280;10507;52.754;13.040;2023-02-18T03:00:13;100198.44;;;5.22;100.00
20696;BME280;10507;52.754;13.040;2023-02-18T03:05:43;100180.97;;;5.18;99.97
20696;BME280;10507;52.754;13.040;2023-02-18T03:08:28;100173.94;;;5.17;99.79
20696;BME280;10507;52.754;13.040;2023-02-18T03:11:03;100176.63;;;5.15;99.81
20696;BME280;10507;52.754;13.040;2023-02-18T03:13:46;100170.59;;;5.12;99.94
20696;BME280;10507;52.754;13.040;2023-02-18T03:16:24;100174.94;;;5.13;99.61
20696;BME280;10507;52.754;13.040;2023-02-18T03:19:00;100198.56;;;5.19;99.69
20696;BME280;10507;52.754;13.040;2023-02-18T03:21:34;100186.25;;;5.18;99.37
20696;BME280;10507;52.754;13.040;2023-02-18T03:24:07;100194.91;;;5.23;99.41
20696;BME280;10507;52.754;13.040;2023-02-18T03:26:41;100184.31;;;5.23;99.23
20696;BME280;10507;52.754;13.040;2023-02-18T03:29:13;100182.47;;;5.25;99.17
20696;BME280;10507;52.754;13.040;2023-02-18T03:31:43;100197.25;;;5.31;98.96
20696;BME280;10507;52.754;13.040;2023-02-18T03:34:15;100178.81;;;5.29;99.30
20696;BME280;10507;52.754;13.040;2023-02-18T03:36:46;100160.44;;;5.25;98.83
20696;BME280;10507;52.754;13.040;2023-02-18T03:39:16;100162.19;;;5.24;99.40
20696;BME280;10507;52.754;13.040;2023-02-18T03:41:44;100168.44;;;5.23;99.26
20696;BME280;10507;52.754;13.040;2023-02-18T03:44:13;100163.94;;;5.25;98.74
20696;BME280;10507;52.754;13.040;2023-02-18T03:46:43;100172.75;;;5.26;98.90
20696;BME280;10507;52.754;13.040;2023-02-18T03:49:13;100163.00;;;5.26;98.80
20696;BME280;10507;52.754;13.040;2023-02-18T03:51:41;100156.75;;;5.29;98.78
20696;BME280;10507;52.754;13.040;2023-02-18T03:54:10;100147.91;;;5.30;98.65
20696;BME280;10507;52.754;13.040;2023-02-18T03:56:40;100145.28;;;5.28;98.67
20696;BME280;10507;52.754;13.040;2023-02-18T03:59:08;100132.00;;;5.30;98.52
20696;BME280;10507;52.754;13.040;2023-02-18T04:01:36;100131.94;;;5.31;98.57
20696;BME280;10507;52.754;13.040;2023-02-18T04:04:04;100134.59;;;5.31;98.27
20696;BME280;10507;52.754;13.040;2023-02-18T04:06:32;100122.16;;;5.33;98.27
20696;BME280;10507;52.754;13.040;2023-02-18T04:09:00;100115.16;;;5.32;98.08
20696;BME280;10507;52.754;13.040;2023-02-18T04:11:29;100119.59;;;5.32;98.00
20696;BME280;10507;52.754;13.040;2023-02-18T04:13:57;100103.06;;;5.25;98.36
20696;BME280;10507;52.754;13.040;2023-02-18T04:16:24;100106.63;;;5.24;98.31
20696;BME280;10507;52.754;13.040;2023-02-18T04:18:52;100119.84;;;5.24;98.70
20696;BME280;10507;52.754;13.040;2023-02-18T04:21:20;100110.25;;;5.21;98.44
20696;BME280;10507;52.754;13.040;2023-02-18T04:23:48;100114.00;;;5.16;98.57
20696;BME280;10507;52.754;13.040;2023-02-18T04:26:15;100105.28;;;5.12;98.77
20696;BME280;10507;52.754;13.040;2023-02-18T04:28:45;100130.81;;;5.13;99.29
20696;BME280;10507;52.754;13.040;2023-02-18T04:31:12;100121.22;;;5.11;99.06
20696;BME280;10507;52.754;13.040;2023-02-18T04:33:41;100129.97;;;5.13;98.92
20696;BME280;10507;52.754;13.040;2023-02-18T04:36:08;100143.84;;;5.19;98.64
20696;BME280;10507;52.754;13.040;2023-02-18T04:38:36;100115.72;;;5.17;98.44
20696;BME280;10507;52.754;13.040;2023-02-18T04:41:04;100094.66;;;5.14;98.41
20696;BME280;10507;52.754;13.040;2023-02-18T04:43:32;100097.34;;;5.12;98.10
20696;BME280;10507;52.754;13.040;2023-02-18T04:46:01;100078.84;;;5.12;98.33
20696;BME280;10507;52.754;13.040;2023-02-18T04:48:29;100084.97;;;5.13;97.83
20696;BME280;10507;52.754;13.040;2023-02-18T04:50:57;100071.94;;;5.08;98.03
20696;BME280;10507;52.754;13.040;2023-02-18T04:53:25;100077.13;;;5.11;97.93
20696;BME280;10507;52.754;13.040;2023-02-18T04:55:53;100060.53;;;5.06;98.22
20696;BME280;10507;52.754;13.040;2023-02-18T04:58:21;100064.06;;;5.07;97.93
20696;BME280;10507;52.754;13.040;2023-02-18T05:00:49;100069.34;;;5.07;97.74
20696;BME280;10507;52.754;13.040;2023-02-18T05:03:18;100080.72;;;5.09;97.75
20696;BME280;10507;52.754;13.040;2023-02-18T05:05:46;100061.41;;;5.07;97.84
20696;BME280;10507;52.754;13.040;2023-02-18T05:08:14;100046.44;;;5.06;97.62
20696;BME280;10507;52.754;13.040;2023-02-18T05:10:42;100043.81;;;5.06;96.90
20696;BME280;10507;52.754;13.040;2023-02-18T05:13:10;100043.81;;;5.06;97.29
20696;BME280;10507;52.754;13.040;2023-02-18T05:15:38;100042.81;;;5.08;97.03
20696;BME280;10507;52.754;13.040;2023-02-18T05:18:06;100061.97;;;5.15;97.24
20696;BME280;10507;52.754;13.040;2023-02-18T05:20:35;100072.94;;;5.29;96.80
20696;BME280;10507;52.754;13.040;2023-02-18T05:23:02;100044.50;;;5.34;96.38
20696;BME280;10507;52.754;13.040;2023-02-18T05:25:30;100019.63;;;5.38;96.22
20696;BME280;10507;52.754;13.040;2023-02-18T05:27:58;100017.66;;;5.44;95.74
20696;BME280;10507;52.754;13.040;2023-02-18T05:30:26;100003.50;;;5.45;95.63
20696;BME280;10507;52.754;13.040;2023-02-18T05:32:57;99984.00;;;5.47;94.74
20696;BME280;10507;52.754;13.040;2023-02-18T05:35:25;99985.53;;;5.53;95.00
20696;BME280;10507;52.754;13.040;2023-02-18T05:37:55;99958.25;;;5.51;94.91
20696;BME280;10507;52.754;13.040;2023-02-18T05:40:22;99966.19;;;5.51;94.93
20696;BME280;10507;52.754;13.040;2023-02-18T05:42:50;99971.47;;;5.51;94.57
20696;BME280;10507;52.754;13.040;2023-02-18T05:45:18;99957.41;;;5.50;95.22
20696;BME280;10507;52.754;13.040;2023-02-18T05:47:48;99972.28;;;5.53;94.80
20696;BME280;10507;52.754;13.040;2023-02-18T05:50:16;99971.38;;;5.54;94.87
20696;BME280;10507;52.754;13.040;2023-02-18T05:52:44;99979.00;;;5.61;94.66
20696;BME280;10507;52.754;13.040;2023-02-18T05:55:14;99986.09;;;5.61;94.83
20696;BME280;10507;52.754;13.040;2023-02-18T05:57:42;99965.72;;;5.63;94.49
20696;BME280;10507;52.754;13.040;2023-02-18T06:00:11;99954.97;;;5.66;94.24
20696;BME280;10507;52.754;13.040;2023-02-18T06:02:38;99952.28;;;5.68;94.39
20696;BME280;10507;52.754;13.040;2023-02-18T06:05:07;99941.59;;;5.69;94.38
20696;BME280;10507;52.754;13.040;2023-02-18T06:07:35;99924.81;;;5.70;93.63
20696;BME280;10507;52.754;13.040;2023-02-18T06:10:05;99913.22;;;5.73;93.79
20696;BME280;10507;52.754;13.040;2023-02-18T06:12:34;99898.13;;;5.75;93.47
20696;BME280;10507;52.754;13.040;2023-02-18T06:15:02;99887.47;;;5.76;93.07
20696;BME280;10507;52.754;13.040;2023-02-18T06:17:30;99892.63;;;5.79;93.37
20696;BME280;10507;52.754;13.040;2023-02-18T06:19:58;99890.72;;;5.83;92.92
20696;BME280;10507;52.754;13.040;2023-02-18T06:22:27;99878.13;;;5.88;93.06
20696;BME280;10507;52.754;13.040;2023-02-18T06:24:55;99868.34;;;5.90;92.39
20696;BME280;10507;52.754;13.040;2023-02-18T06:27:22;99859.38;;;5.93;92.12
20696;BME280;10507;52.754;13.040;2023-02-18T06:29:52;99854.06;;;5.94;92.41
20696;BME280;10507;52.754;13.040;2023-02-18T06:32:19;99842.38;;;5.98;91.99
20696;BME280;10507;52.754;13.040;2023-02-18T06:34:47;99844.97;;;6.00;92.15
20696;BME280;10507;52.754;13.040;2023-02-18T06:37:15;99844.06;;;6.01;92.18
20696;BME280;10507;52.754;13.040;2023-02-18T06:39:43;99844.06;;;6.01;92.29
20696;BME280;10507;52.754;13.040;2023-02-18T06:42:11;99843.75;;;6.07;92.05
20696;BME280;10507;52.754;13.040;2023-02-18T06:44:38;99837.34;;;6.13;91.47
20696;BME280;10507;52.754;13.040;2023-02-18T06:47:08;99831.03;;;6.15;91.34
20696;BME280;10507;52.754;13.040;2023-02-18T06:49:36;99844.09;;;6.20;91.82
20696;BME280;10507;52.754;13.040;2023-02-18T06:52:04;99829.03;;;6.20;90.87
20696;BME280;10507;52.754;13.040;2023-02-18T06:54:32;99842.88;;;6.27;91.14
20696;BME280;10507;52.754;13.040;2023-02-18T06:57:00;99812.72;;;6.30;90.66
20696;BME280;10507;52.754;13.040;2023-02-18T06:59:28;99813.44;;;6.33;90.58
20696;BME280;10507;52.754;13.040;2023-02-18T07:01:56;99792.16;;;6.35;90.16
20696;BME280;10507;52.754;13.040;2023-02-18T07:04:25;99796.38;;;6.39;90.67
20696;BME280;10507;52.754;13.040;2023-02-18T07:06:53;99806.78;;;6.43;90.29
20696;BME280;10507;52.754;13.040;2023-02-18T07:09:21;99784.56;;;6.46;89.96
20696;BME280;10507;52.754;13.040;2023-02-18T07:11:48;99773.81;;;6.49;89.64
20696;BME280;10507;52.754;13.040;2023-02-18T07:14:16;99756.88;;;6.52;89.90
20696;BME280;10507;52.754;13.040;2023-02-18T07:16:44;99740.13;;;6.51;89.75
20696;BME280;10507;52.754;13.040;2023-02-18T07:19:12;99749.88;;;6.51;89.41
20696;BME280;10507;52.754;13.040;2023-02-18T07:21:42;99764.84;;;6.52;90.09
20696;BME280;10507;52.754;13.040;2023-02-18T07:24:09;99769.06;;;6.56;89.80
20696;BME280;10507;52.754;13.040;2023-02-18T07:26:37;99751.25;;;6.59;89.83
20696;BME280;10507;52.754;13.040;2023-02-18T07:29:05;99743.19;;;6.61;89.35
20696;BME280;10507;52.754;13.040;2023-02-18T07:31:33;99729.00;;;6.62;89.57
20696;BME280;10507;52.754;13.040;2023-02-18T07:34:01;99741.19;;;6.66;89.95
20696;BME280;10507;52.754;13.040;2023-02-18T07:36:29;99768.28;;;6.73;89.40
20696;BME280;10507;52.754;13.040;2023-02-18T07:38:58;99755.94;;;6.72;89.17
20696;BME280;10507;52.754;13.040;2023-02-18T07:41:26;99751.34;;;6.75;89.56
20696;BME280;10507;52.754;13.040;2023-02-18T07:43:53;99776.81;;;6.79;90.18
20696;BME280;10507;52.754;13.040;2023-02-18T07:46:21;99746.03;;;6.75;90.12
20696;BME280;10507;52.754;13.040;2023-02-18T07:48:49;99803.16;;;6.82;89.97
20696;BME280;10507;52.754;13.040;2023-02-18T07:51:17;99765.31;;;6.79;90.23
20696;BME280;10507;52.754;13.040;2023-02-18T07:53:45;99786.25;;;6.85;89.79
20696;BME280;10507;52.754;13.040;2023-02-18T07:56:15;99792.34;;;6.87;90.68
20696;BME280;10507;52.754;13.040;2023-02-18T07:58:45;99749.63;;;6.74;90.33
20696;BME280;10507;52.754;13.040;2023-02-18T08:01:13;99793.78;;;6.75;91.07
20696;BME280;10507;52.754;13.040;2023-02-18T08:03:43;99822.75;;;6.80;91.29
20696;BME280;10507;52.754;13.040;2023-02-18T08:06:20;99860.75;;;6.80;92.19
20696;BME280;10507;52.754;13.040;2023-02-18T08:08:49;99880.19;;;6.81;92.66
20696;BME280;10507;52.754;13.040;2023-02-18T08:11:18;99930.47;;;6.84;92.94
20696;BME280;10507;52.754;13.040;2023-02-18T08:13:48;99948.47;;;6.77;93.54
20696;BME280;10507;52.754;13.040;2023-02-18T08:16:18;99974.09;;;6.77;95.07
20696;BME280;10507;52.754;13.040;2023-02-18T08:18:48;100013.88;;;6.77;95.43
20696;BME280;10507;52.754;13.040;2023-02-18T08:21:18;100023.06;;;6.70;95.48
20696;BME280;10507;52.754;13.040;2023-02-18T08:23:46;99988.94;;;6.62;95.98
20696;BME280;10507;52.754;13.040;2023-02-18T08:26:16;100018.81;;;6.65;96.49
20696;BME280;10507;52.754;13.040;2023-02-18T08:28:46;100055.84;;;6.69;96.99
20696;BME280;10507;52.754;13.040;2023-02-18T08:31:19;100064.78;;;6.66;97.73
20696;BME280;10507;52.754;13.040;2023-02-18T08:33:47;100085.47;;;6.58;97.98
20696;BME280;10507;52.754;13.040;2023-02-18T08:36:19;100110.34;;;6.55;98.72
20696;BME280;10507;52.754;13.040;2023-02-18T08:38:47;100135.88;;;6.58;99.49
20696;BME280;10507;52.754;13.040;2023-02-18T08:41:15;100171.84;;;6.63;99.99
20696;BME280;10507;52.754;13.040;2023-02-18T08:43:46;100180.63;;;6.65;100.00
20696;BME280;10507;52.754;13.040;2023-02-18T08:46:15;100211.31;;;6.73;100.00
20696;BME280;10507;52.754;13.040;2023-02-18T08:49:00;100217.47;;;6.73;100.00
20696;BME280;10507;52.754;13.040;2023-02-18T08:51:28;100215.91;;;6.68;100.00
20696;BME280;10507;52.754;13.040;2023-02-18T08:53:58;100238.69;;;6.73;100.00
20696;BME280;10507;52.754;13.040;2023-02-18T08:56:26;100263.28;;;6.77;100.00
20696;BME280;10507;52.754;13.040;2023-02-18T08:58:56;100278.97;;;6.83;100.00
20696;BME280;10507;52.754;13.040;2023-02-18T09:01:24;100294.41;;;6.95;100.00
20696;BME280;10507;52.754;13.040;2023-02-18T09:03:52;100277.13;;;6.85;100.00
20696;BME280;10507;52.754;13.040;2023-02-18T09:06:21;100306.44;;;6.82;100.00
20696;BME280;10507;52.754;13.040;2023-02-18T09:08:49;100343.94;;;6.95;100.00
20696;BME280;10507;52.754;13.040;2023-02-18T09:11:17;100347.91;;;7.06;100.00
20696;BME280;10507;52.754;13.040;2023-02-18T09:13:46;100324.03;;;7.06;100.00
20696;BME280;10507;52.754;13.040;2023-02-18T09:16:17;100332.78;;;7.08;100.00
20696;BME280;10507;52.754;13.040;2023-02-18T09:18:46;100334.31;;;7.14;100.00
20696;BME280;10507;52.754;13.040;2023-02-18T09:21:19;100334.50;;;7.10;100.00
20696;BME280;10507;52.754;13.040;2023-02-18T09:23:53;100359.19;;;7.12;100.00
20696;BME280;10507;52.754;13.040;2023-02-18T09:26:24;100343.41;;;7.08;100.00
20696;BME280;10507;52.754;13.040;2023-02-18T09:28:54;100365.13;;;7.18;100.00
20696;BME280;10507;52.754;13.040;2023-02-18T09:31:26;100366.56;;;7.27;100.00
20696;BME280;10507;52.754;13.040;2023-02-18T09:33:56;100337.34;;;7.27;100.00
20696;BME280;10507;52.754;13.040;2023-02-18T09:36:24;100362.91;;;7.29;100.00
20696;BME280;10507;52.754;13.040;2023-02-18T09:38:52;100351.81;;;7.20;100.00
20696;BME280;10507;52.754;13.040;2023-02-18T09:41:27;100339.56;;;7.16;100.00
20696;BME280;10507;52.754;13.040;2023-02-18T09:43:59;100334.50;;;7.10;100.00
20696;BME280;10507;52.754;13.040;2023-02-18T09:46:32;100330.13;;;7.08;100.00
20696;BME280;10507;52.754;13.040;2023-02-18T09:49:06;100313.50;;;7.03;100.00
20696;BME280;10507;52.754;13.040;2023-02-18T09:51:35;100340.91;;;7.04;100.00
20696;BME280;10507;52.754;13.040;2023-02-18T09:54:03;100329.94;;;6.91;100.00
20696;BME280;10507;52.754;13.040;2023-02-18T09:56:32;100343.59;;;6.82;100.00
20696;BME280;10507;52.754;13.040;2023-02-18T09:59:03;100365.66;;;6.82;100.00
20696;BME280;10507;52.754;13.040;2023-02-18T10:01:35;100395.31;;;6.94;100.00
20696;BME280;10507;52.754;13.040;2023-02-18T10:04:10;100365.63;;;6.84;100.00
20696;BME280;10507;52.754;13.040;2023-02-18T10:06:39;100395.34;;;6.92;100.00
20696;BME280;10507;52.754;13.040;2023-02-18T10:09:15;100410.09;;;6.99;100.00
20696;BME280;10507;52.754;13.040;2023-02-18T10:11:48;100389.00;;;6.96;100.00
20696;BME280;10507;52.754;13.040;2023-02-18T10:14:17;100366.56;;;6.81;100.00
20696;BME280;10507;52.754;13.040;2023-02-18T10:16:48;100344.91;;;6.70;100.00
20696;BME280;10507;52.754;13.040;2023-02-18T10:19:23;100367.94;;;6.70;100.00
20696;BME280;10507;52.754;13.040;2023-02-18T10:21:52;100364.72;;;6.61;100.00
20696;BME280;10507;52.754;13.040;2023-02-18T10:24:27;100376.19;;;6.62;100.00
20696;BME280;10507;52.754;13.040;2023-02-18T10:26:56;100362.97;;;6.60;100.00
20696;BME280;10507;52.754;13.040;2023-02-18T10:29:25;100382.47;;;6.59;100.00
20696;BME280;10507;52.754;13.040;2023-02-18T10:32:06;100410.50;;;6.66;100.00
20696;BME280;10507;52.754;13.040;2023-02-18T10:34:40;100399.22;;;6.61;100.00
20696;BME280;10507;52.754;13.040;2023-02-18T10:37:22;100381.09;;;6.49;100.00
20696;BME280;10507;52.754;13.040;2023-02-18T10:40:05;100380.16;;;6.50;100.00
20696;BME280;10507;52.754;13.040;2023-02-18T10:42:44;100389.97;;;6.48;100.00
20696;BME280;10507;52.754;13.040;2023-02-18T10:45:20;100419.72;;;6.56;100.00
20696;BME280;10507;52.754;13.040;2023-02-18T10:48:03;100422.31;;;6.58;100.00
20696;BME280;10507;52.754;13.040;2023-02-18T10:50:38;100429.28;;;6.60;100.00
20696;BME280;10507;52.754;13.040;2023-02-18T10:53:11;100431.19;;;6.57;100.00
20696;BME280;10507;52.754;13.040;2023-02-18T10:55:42;100440.03;;;6.57;100.00
20696;BME280;10507;52.754;13.040;2023-02-18T10:58:27;100453.03;;;6.63;100.00
20696;BME280;10507;52.754;13.040;2023-02-18T11:01:00;100423.31;;;6.55;100.00
20696;BME280;10507;52.754;13.040;2023-02-18T11:03:43;100448.50;;;6.67;100.00
20696;BME280;10507;52.754;13.040;2023-02-18T11:06:19;100458.94;;;6.72;100.00
20696;BME280;10507;52.754;13.040;2023-02-18T11:08:48;100441.47;;;6.66;100.00
20696;BME280;10507;52.754;13.040;2023-02-18T11:11:20;100441.56;;;6.63;100.00
20696;BME280;10507;52.754;13.040;2023-02-18T11:13:51;100450.16;;;6.70;100.00
20696;BME280;10507;52.754;13.040;2023-02-18T11:16:21;100460.56;;;6.76;100.00
20696;BME280;10507;52.754;13.040;2023-02-18T11:18:50;100439.69;;;6.66;100.00
20696;BME280;10507;52.754;13.040;2023-02-18T11:21:23;100456.41;;;6.69;100.00
20696;BME280;10507;52.754;13.040;2023-02-18T11:23:55;100469.44;;;6.75;100.00
20696;BME280;10507;52.754;13.040;2023-02-18T11:26:26;100470.13;;;6.80;100.00
20696;BME280;10507;52.754;13.040;2023-02-18T11:28:59;100457.88;;;6.77;100.00
20696;BME280;10507;52.754;13.040;2023-02-18T11:31:38;100440.25;;;6.75;100.00
20696;BME280;10507;52.754;13.040;2023-02-18T11:34:14;100447.47;;;6.71;100.00
20696;BME280;10507;52.754;13.040;2023-02-18T11:36:43;100482.47;;;6.81;100.00
20696;BME280;10507;52.754;13.040;2023-02-18T11:39:18;100455.13;;;6.79;100.00
20696;BME280;10507;52.754;13.040;2023-02-18T11:41:52;100476.91;;;6.89;100.00
20696;BME280;10507;52.754;13.040;2023-02-18T11:44:23;100466.09;;;6.93;100.00
20696;BME280;10507;52.754;13.040;2023-02-18T11:46:59;100445.56;;;6.98;100.00
20696;BME280;10507;52.754;13.040;2023-02-18T11:49:30;100444.28;;;7.08;100.00
20696;BME280;10507;52.754;13.040;2023-02-18T11:52:17;100407.00;;;7.12;100.00
20696;BME280;10507;52.754;13.040;2023-02-18T11:54:59;100359.34;;;7.08;100.00
20696;BME280;10507;52.754;13.040;2023-02-18T11:57:27;100337.31;;;7.06;100.00
20696;BME280;10507;52.754;13.040;2023-02-18T11:59:56;100332.03;;;7.05;100.00
20696;BME280;10507;52.754;13.040;2023-02-18T12:02:30;100330.19;;;7.07;100.00
20696;BME280;10507;52.754;13.040;2023-02-18T12:05:04;100318.81;;;7.03;100.00
20696;BME280;10507;52.754;13.040;2023-02-18T12:07:42;100328.72;;;7.00;100.00
20696;BME280;10507;52.754;13.040;2023-02-18T12:10:13;100338.72;;;6.93;100.00
20696;BME280;10507;52.754;13.040;2023-02-18T12:12:45;100360.66;;;6.97;100.00
20696;BME280;10507;52.754;13.040;2023-02-18T12:15:17;100345.91;;;6.90;100.00
20696;BME280;10507;52.754;13.040;2023-02-18T12:17:58;100389.59;;;7.04;100.00
20696;BME280;10507;52.754;13.040;2023-02-18T12:20:59;100405.94;;;7.16;100.00
20696;BME280;10507;52.754;13.040;2023-02-18T12:23:37;100368.03;;;7.12;100.00
20696;BME280;10507;52.754;13.040;2023-02-18T12:26:21;100384.91;;;7.11;100.00
20696;BME280;10507;52.754;13.040;2023-02-18T12:29:04;100362.75;;;7.11;100.00
20696;BME280;10507;52.754;13.040;2023-02-18T12:32:03;100387.38;;;7.16;100.00
20696;BME280;10507;52.754;13.040;2023-02-18T12:34:42;100400.50;;;7.19;100.00
20696;BME280;10507;52.754;13.040;2023-02-18T12:37:42;100421.47;;;7.26;100.00
20696;BME280;10507;52.754;13.040;2023-02-18T12:40:30;100446.50;;;7.41;100.00
20696;BME280;10507;52.754;13.040;2023-02-18T12:43:05;100496.81;;;7.68;100.00
20696;BME280;10507;52.754;13.040;2023-02-18T12:45:47;100496.31;;;7.80;100.00
20696;BME280;10507;52.754;13.040;2023-02-18T12:48:31;100509.03;;;7.94;100.00
20696;BME280;10507;52.754;13.040;2023-02-18T12:51:09;100523.47;;;8.09;100.00
20696;BME280;10507;52.754;13.040;2023-02-18T12:53:51;100533.53;;;8.23;100.00
20696;BME280;10507;52.754;13.040;2023-02-18T12:56:46;100563.03;;;8.39;100.00
20696;BME280;10507;52.754;13.040;2023-02-18T13:02:32;100633.19;;;8.79;100.00
20696;BME280;10507;52.754;13.040;2023-02-18T13:05:10;100650.91;;;9.00;100.00
20696;BME280;10507;52.754;13.040;2023-02-18T13:08:03;100680.13;;;9.22;100.00
20696;BME280;10507;52.754;13.040;2023-02-18T13:10:55;100694.50;;;9.39;100.00
20696;BME280;10507;52.754;13.040;2023-02-18T13:13:31;100704.53;;;9.52;100.00
20696;BME280;10507;52.754;13.040;2023-02-18T13:16:02;100688.22;;;9.60;100.00
20696;BME280;10507;52.754;13.040;2023-02-18T13:18:34;100700.34;;;9.67;100.00
20696;BME280;10507;52.754;13.040;2023-02-18T13:21:06;100713.44;;;9.72;100.00
20696;BME280;10507;52.754;13.040;2023-02-18T13:23:38;100717.66;;;9.77;100.00